createdAt,value
2023-01-26T00:01:30.524Z,34.80
2023-01-26T00:03:57.995Z,29.63
2023-01-26T00:06:26.313Z,36.67
2023-01-26T00:08:55.712Z,33.83
2023-01-26T00:11:26.826Z,33.00
2023-01-26T00:13:58.614Z,30.73
2023-01-26T00:16:26.725Z,30.25
2023-01-26T00:18:54.173Z,36.65
2023-01-26T00:21:23.444Z,34.30
2023-01-26T00:23:51.708Z,37.75
2023-01-26T00:26:22.962Z,35.42
2023-01-26T00:28:51.229Z,32.90
2023-01-26T00:31:21.927Z,29.73
2023-01-26T00:33:49.050Z,33.38
2023-01-26T00:36:16.250Z,27.95
2023-01-26T00:38:43.329Z,36.05
2023-01-26T00:41:29.926Z,30.30
2023-01-26T00:43:57.169Z,30.88
2023-01-26T00:46:24.385Z,35.15
2023-01-26T00:48:51.480Z,35.00
2023-01-26T00:51:18.602Z,29.70
2023-01-26T00:53:45.676Z,28.30
2023-01-26T00:56:14.811Z,30.40
2023-01-26T00:58:43.127Z,30.95
2023-01-26T01:01:11.570Z,32.00
2023-01-26T01:03:42.691Z,30.45
2023-01-26T01:06:09.982Z,32.72
2023-01-26T01:08:36.956Z,29.23
2023-01-26T01:11:09.857Z,30.60
2023-01-26T01:13:37.456Z,32.17
2023-01-26T01:16:09.000Z,29.90
2023-01-26T01:18:37.095Z,34.00
2023-01-26T01:21:09.436Z,29.10
2023-01-26T01:23:37.032Z,32.63
2023-01-26T01:26:04.770Z,29.17
2023-01-26T01:28:33.218Z,30.48
2023-01-26T01:31:00.303Z,31.60
2023-01-26T01:33:28.557Z,30.40
2023-01-26T01:36:00.351Z,33.17
2023-01-26T01:38:27.787Z,32.72
2023-01-26T01:40:55.804Z,35.60
2023-01-26T01:43:24.609Z,30.20
2023-01-26T01:45:52.804Z,30.00
2023-01-26T01:48:28.574Z,26.95
2023-01-26T01:50:59.979Z,30.30
2023-01-26T01:53:33.825Z,30.80
2023-01-26T01:56:05.701Z,29.25
2023-01-26T01:58:37.465Z,33.40
2023-01-26T02:01:04.669Z,31.42
2023-01-26T02:03:33.312Z,32.15
2023-01-26T02:06:03.342Z,30.55
2023-01-26T02:08:53.613Z,33.40
2023-01-26T02:11:32.603Z,31.00
2023-01-26T02:14:05.182Z,28.27
2023-01-26T02:16:32.394Z,28.77
2023-01-26T02:18:59.520Z,29.35
2023-01-26T02:21:26.849Z,27.63
2023-01-26T02:24:01.361Z,29.35
2023-01-26T02:26:32.353Z,34.85
2023-01-26T02:29:00.361Z,31.20
2023-01-26T02:31:28.186Z,28.98
2023-01-26T02:33:56.874Z,33.13
2023-01-26T02:36:27.561Z,35.83
2023-01-26T02:39:52.739Z,31.83
2023-01-26T02:42:38.393Z,30.08
2023-01-26T02:45:07.014Z,31.70
2023-01-26T02:47:33.987Z,32.92
2023-01-26T02:50:01.344Z,30.23
2023-01-26T02:52:31.063Z,30.77
2023-01-26T02:55:26.370Z,36.22
2023-01-26T02:58:07.432Z,31.95
2023-01-26T03:00:42.012Z,29.67
2023-01-26T03:03:16.839Z,29.90
2023-01-26T03:05:44.242Z,28.67
2023-01-26T03:08:11.287Z,32.00
2023-01-26T03:10:38.476Z,31.48
2023-01-26T03:13:06.709Z,30.85
2023-01-26T03:15:43.362Z,32.35
2023-01-26T03:18:33.965Z,30.60
2023-01-26T03:21:25.231Z,30.67
2023-01-26T03:24:10.831Z,31.63
2023-01-26T03:26:57.595Z,34.80
2023-01-26T03:29:26.902Z,31.70
2023-01-26T03:31:59.305Z,35.00
2023-01-26T03:34:27.471Z,30.05
2023-01-26T03:36:54.543Z,35.50
2023-01-26T03:39:41.705Z,32.05
2023-01-26T03:42:27.486Z,36.72
2023-01-26T03:45:13.346Z,34.67
2023-01-26T03:48:01.423Z,32.15
2023-01-26T03:50:48.539Z,28.20
2023-01-26T03:53:38.285Z,28.00
2023-01-26T03:56:22.242Z,28.15
2023-01-26T03:58:56.843Z,30.42
2023-01-26T04:01:28.266Z,31.45
2023-01-26T04:04:17.008Z,28.10
2023-01-26T04:07:06.739Z,27.95
2023-01-26T04:09:37.036Z,30.73
2023-01-26T04:12:04.861Z,29.35
2023-01-26T04:14:53.346Z,27.95
2023-01-26T04:17:42.877Z,29.00
2023-01-26T04:20:29.059Z,28.85
2023-01-26T04:22:56.311Z,30.83
2023-01-26T04:25:23.674Z,26.65
2023-01-26T04:27:51.278Z,30.85
2023-01-26T04:30:19.477Z,27.67
2023-01-26T04:32:46.850Z,25.45
2023-01-26T04:35:14.324Z,31.38
2023-01-26T04:37:43.103Z,28.15
2023-01-26T04:40:11.155Z,26.25
2023-01-26T04:42:38.902Z,28.35
2023-01-26T04:45:06.885Z,26.52
2023-01-26T04:47:34.781Z,26.88
2023-01-26T04:50:03.526Z,26.50
2023-01-26T04:52:32.044Z,31.95
2023-01-26T04:54:59.814Z,32.50
2023-01-26T04:57:27.131Z,32.88
2023-01-26T04:59:54.741Z,33.35
2023-01-26T05:02:21.742Z,31.75
2023-01-26T05:04:48.704Z,35.38
2023-01-26T05:07:15.753Z,34.45
2023-01-26T05:09:44.438Z,38.00
2023-01-26T05:12:34.349Z,33.30
2023-01-26T05:15:13.559Z,32.15
2023-01-26T05:18:04.281Z,31.10
2023-01-26T05:20:51.628Z,30.48
2023-01-26T05:23:23.953Z,27.10
2023-01-26T05:26:04.004Z,29.48
2023-01-26T05:28:37.941Z,36.75
2023-01-26T05:31:05.709Z,35.53
2023-01-26T05:33:33.403Z,35.90
2023-01-26T05:36:06.010Z,31.38
2023-01-26T05:38:34.077Z,29.90
2023-01-26T05:41:01.212Z,30.20
2023-01-26T05:43:32.603Z,32.20
2023-01-26T05:46:11.441Z,32.88
2023-01-26T05:48:42.043Z,30.63
2023-01-26T05:51:09.161Z,30.67
2023-01-26T05:53:37.238Z,33.97
2023-01-26T05:56:04.489Z,31.98
2023-01-26T05:58:33.846Z,33.42
2023-01-26T06:01:05.309Z,33.15
2023-01-26T06:03:42.850Z,34.08
2023-01-26T06:06:09.812Z,29.90
2023-01-26T06:08:42.877Z,33.15
2023-01-26T06:11:31.939Z,31.70
2023-01-26T06:14:22.348Z,33.63
2023-01-26T06:16:50.830Z,30.27
2023-01-26T06:19:18.569Z,36.22
2023-01-26T06:21:51.306Z,32.03
2023-01-26T06:24:18.494Z,34.03
2023-01-26T06:26:48.691Z,35.15
2023-01-26T06:29:17.360Z,37.63
2023-01-26T06:31:44.546Z,35.92
2023-01-26T06:34:12.447Z,32.88
2023-01-26T06:36:41.731Z,39.55
2023-01-26T06:39:17.297Z,33.15
2023-01-26T06:41:44.673Z,30.25
2023-01-26T06:44:12.492Z,36.63
2023-01-26T06:46:39.980Z,32.50
2023-01-26T06:49:07.082Z,35.17
2023-01-26T06:51:54.389Z,35.00
2023-01-26T06:54:26.315Z,34.40
2023-01-26T06:57:22.200Z,34.92
2023-01-26T07:00:03.292Z,36.20
2023-01-26T07:02:52.667Z,39.63
2023-01-26T07:05:20.216Z,41.25
2023-01-26T07:07:47.232Z,37.47
2023-01-26T07:10:14.571Z,34.28
2023-01-26T07:12:45.682Z,34.95
2023-01-26T07:15:13.725Z,33.65
2023-01-26T07:17:43.835Z,33.75
2023-01-26T07:20:11.457Z,35.17
2023-01-26T07:22:38.652Z,35.38
2023-01-26T07:25:06.086Z,35.85
2023-01-26T07:27:33.070Z,35.75
2023-01-26T07:29:59.925Z,35.83
2023-01-26T07:32:27.017Z,34.05
2023-01-26T07:34:54.033Z,32.75
2023-01-26T07:37:21.041Z,34.90
2023-01-26T07:39:49.171Z,31.27
2023-01-26T07:42:16.385Z,36.20
2023-01-26T07:44:49.730Z,34.95
2023-01-26T07:47:20.150Z,35.55
2023-01-26T07:49:47.309Z,33.70
2023-01-26T07:52:14.503Z,33.58
2023-01-26T07:54:41.545Z,35.35
2023-01-26T07:57:09.160Z,32.50
2023-01-26T07:59:36.187Z,34.33
2023-01-26T08:02:03.255Z,33.95
2023-01-26T08:04:30.318Z,34.88
2023-01-26T08:06:57.357Z,33.88
2023-01-26T08:09:25.957Z,34.80
2023-01-26T08:11:52.874Z,37.40
2023-01-26T08:14:19.870Z,32.50
2023-01-26T08:16:46.958Z,37.80
2023-01-26T08:19:13.887Z,34.65
2023-01-26T08:21:40.894Z,35.00
2023-01-26T08:24:08.076Z,36.80
2023-01-26T08:26:34.971Z,34.55
2023-01-26T08:29:02.064Z,32.50
2023-01-26T08:31:29.180Z,40.60
2023-01-26T08:33:56.701Z,32.08
2023-01-26T08:36:23.787Z,32.42
2023-01-26T08:38:51.823Z,35.80
2023-01-26T08:41:19.141Z,38.85
2023-01-26T08:43:46.257Z,35.78
2023-01-26T08:46:13.361Z,34.28
2023-01-26T08:48:40.504Z,38.83
2023-01-26T08:51:08.723Z,38.25
2023-01-26T08:53:37.504Z,39.53
2023-01-26T08:56:06.300Z,40.45
2023-01-26T08:58:33.964Z,39.60
2023-01-26T09:01:08.234Z,41.88
2023-01-26T09:03:35.712Z,36.05
2023-01-26T09:06:05.045Z,38.60
2023-01-26T09:08:32.570Z,40.15
2023-01-26T09:10:59.901Z,40.88
2023-01-26T09:13:29.399Z,44.10
2023-01-26T09:15:56.462Z,45.05
2023-01-26T09:18:23.433Z,38.95
2023-01-26T09:20:51.347Z,43.20
2023-01-26T09:23:18.377Z,39.40
2023-01-26T09:25:45.432Z,42.30
2023-01-26T09:28:12.595Z,38.17
2023-01-26T09:30:39.803Z,35.33
2023-01-26T09:33:07.392Z,33.42
2023-01-26T09:35:34.451Z,37.65
2023-01-26T09:38:01.521Z,38.22
2023-01-26T09:40:46.155Z,33.83
2023-01-26T09:43:39.924Z,38.97
2023-01-26T09:46:21.020Z,36.42
2023-01-26T09:49:08.972Z,37.05
2023-01-26T09:52:00.367Z,30.60
2023-01-26T09:54:28.152Z,35.08
2023-01-26T09:56:56.274Z,31.40
2023-01-26T09:59:31.936Z,30.80
2023-01-26T10:02:29.121Z,29.88
2023-01-26T10:05:01.005Z,26.83
2023-01-26T10:07:28.730Z,27.08
2023-01-26T10:09:56.660Z,29.35
2023-01-26T10:12:31.015Z,33.50
2023-01-26T10:15:16.265Z,32.13
2023-01-26T10:17:45.842Z,29.60
2023-01-26T10:20:15.734Z,29.95
2023-01-26T10:22:52.158Z,27.30
2023-01-26T10:25:36.298Z,26.90
2023-01-26T10:28:20.669Z,26.20
2023-01-26T10:30:49.064Z,27.00
2023-01-26T10:33:36.744Z,29.83
2023-01-26T10:36:06.788Z,26.88
2023-01-26T10:38:33.908Z,23.20
2023-01-26T10:41:06.607Z,23.50
2023-01-26T10:43:41.610Z,21.45
2023-01-26T10:46:23.545Z,21.80
2023-01-26T10:48:54.090Z,24.13
2023-01-26T10:51:33.506Z,20.63
2023-01-26T10:54:21.401Z,22.73
2023-01-26T10:56:50.262Z,23.80
2023-01-26T10:59:27.970Z,21.40
2023-01-26T11:01:58.033Z,22.40
2023-01-26T11:04:26.158Z,24.20
2023-01-26T11:06:53.488Z,21.92
2023-01-26T11:09:25.623Z,24.90
2023-01-26T11:12:05.827Z,25.50
2023-01-26T11:14:34.745Z,22.80
2023-01-26T11:17:14.102Z,24.08
2023-01-26T11:19:47.091Z,21.77
2023-01-26T11:22:37.545Z,20.88
2023-01-26T11:25:24.808Z,22.52
2023-01-26T11:28:17.883Z,21.35
2023-01-26T11:30:56.650Z,22.13
2023-01-26T11:33:50.975Z,24.10
2023-01-26T11:36:36.617Z,24.38
2023-01-26T11:39:15.413Z,21.33
2023-01-26T11:42:00.998Z,20.55
2023-01-26T11:45:06.087Z,19.77
2023-01-26T11:48:21.524Z,16.70
2023-01-26T11:51:15.885Z,18.02
2023-01-26T11:53:55.001Z,21.55
2023-01-26T11:56:35.640Z,17.23
2023-01-26T11:59:11.433Z,17.33
2023-01-26T12:01:56.444Z,17.73
2023-01-26T12:04:23.694Z,20.48
2023-01-26T12:07:01.251Z,18.85
2023-01-26T12:09:36.650Z,17.67
2023-01-26T12:12:32.405Z,17.13
2023-01-26T12:15:10.896Z,17.75
2023-01-26T12:18:10.687Z,16.65
2023-01-26T12:20:55.346Z,18.58
2023-01-26T12:23:29.791Z,17.08
2023-01-26T12:26:07.895Z,13.23
2023-01-26T12:29:09.604Z,18.10
2023-01-26T12:31:48.549Z,43.40
2023-01-26T12:34:15.918Z,47.92
2023-01-26T12:37:16.573Z,34.25
2023-01-26T12:39:58.957Z,24.90
2023-01-26T12:42:54.504Z,19.15
2023-01-26T12:45:28.775Z,16.58
2023-01-26T12:48:20.703Z,17.38
2023-01-26T12:50:56.056Z,18.65
2023-01-26T12:53:30.362Z,13.68
2023-01-26T12:56:10.223Z,14.35
2023-01-26T12:58:43.034Z,16.02
2023-01-26T13:01:17.490Z,12.98
2023-01-26T13:03:57.085Z,12.98
2023-01-26T13:06:28.935Z,13.27
2023-01-26T13:09:24.806Z,12.70
2023-01-26T13:12:00.171Z,14.60
2023-01-26T13:15:00.196Z,11.48
2023-01-26T13:17:27.912Z,12.85
2023-01-26T13:19:59.963Z,11.15
2023-01-26T13:22:27.132Z,11.85
2023-01-26T13:24:59.645Z,13.05
2023-01-26T13:27:56.668Z,14.20
2023-01-26T13:30:24.007Z,12.85
2023-01-26T13:32:52.646Z,13.55
2023-01-26T13:35:23.634Z,13.93
2023-01-26T13:37:53.662Z,11.75
2023-01-26T13:40:25.104Z,13.35
2023-01-26T13:43:26.365Z,10.68
2023-01-26T13:46:00.919Z,12.68
2023-01-26T13:48:40.032Z,9.93
2023-01-26T13:51:11.502Z,10.20
2023-01-26T13:53:44.202Z,17.90
2023-01-26T13:56:24.595Z,15.98
2023-01-26T13:58:52.565Z,15.85
2023-01-26T14:01:20.469Z,14.18
2023-01-26T14:03:47.519Z,15.00
2023-01-26T14:06:22.558Z,14.27
2023-01-26T14:08:56.811Z,15.50
2023-01-26T14:11:26.717Z,15.93
2023-01-26T14:13:57.402Z,14.68
2023-01-26T14:16:33.062Z,16.70
2023-01-26T14:19:09.514Z,14.15
2023-01-26T14:21:52.921Z,14.50
2023-01-26T14:24:27.083Z,15.23
2023-01-26T14:26:54.289Z,10.43
2023-01-26T14:29:25.984Z,11.10
2023-01-26T14:31:55.295Z,11.57
2023-01-26T14:34:25.509Z,12.02
2023-01-26T14:37:17.304Z,12.40
2023-01-26T14:39:47.956Z,16.20
2023-01-26T14:42:18.817Z,15.43
2023-01-26T14:44:46.806Z,12.63
2023-01-26T14:47:22.109Z,15.43
2023-01-26T14:49:59.611Z,19.95
2023-01-26T14:52:34.015Z,17.98
2023-01-26T14:55:27.202Z,17.55
2023-01-26T14:57:55.365Z,16.13
2023-01-26T15:00:29.591Z,16.75
2023-01-26T15:02:59.624Z,16.10
2023-01-26T15:05:35.975Z,13.15
2023-01-26T15:08:23.785Z,11.68
2023-01-26T15:11:16.813Z,15.55
2023-01-26T15:13:46.252Z,15.48
2023-01-26T15:16:21.963Z,15.80
2023-01-26T15:19:00.046Z,16.45
2023-01-26T15:21:39.694Z,12.52
2023-01-26T15:24:13.176Z,15.18
2023-01-26T15:26:40.984Z,15.57
2023-01-26T15:29:28.677Z,15.40
2023-01-26T15:31:57.231Z,15.45
2023-01-26T15:34:37.747Z,15.35
2023-01-26T15:37:26.602Z,16.10
2023-01-26T15:39:53.783Z,21.38
2023-01-26T15:42:28.913Z,25.50
2023-01-26T15:44:56.584Z,30.05
2023-01-26T15:47:23.780Z,23.65
2023-01-26T15:49:50.915Z,25.20
2023-01-26T15:52:25.603Z,20.67
2023-01-26T15:54:54.054Z,22.17
2023-01-26T15:57:21.387Z,20.67
2023-01-26T15:59:48.435Z,19.40
2023-01-26T16:02:18.300Z,18.60
2023-01-26T16:04:46.022Z,17.55
2023-01-26T16:07:16.119Z,18.20
2023-01-26T16:09:43.612Z,17.50
2023-01-26T16:12:31.074Z,16.45
2023-01-26T16:14:59.816Z,17.77
2023-01-26T16:17:26.833Z,20.05
2023-01-26T16:19:53.977Z,18.00
2023-01-26T16:22:21.103Z,17.25
2023-01-26T16:24:48.311Z,17.80
2023-01-26T16:27:15.409Z,17.10
2023-01-26T16:29:42.451Z,15.35
2023-01-26T16:32:27.517Z,16.50
2023-01-26T16:34:54.867Z,15.68
2023-01-26T16:37:22.007Z,16.38
2023-01-26T16:39:49.142Z,13.85
2023-01-26T16:42:20.050Z,14.35
2023-01-26T16:44:47.967Z,13.95
2023-01-26T16:47:15.199Z,15.85
2023-01-26T16:49:42.251Z,13.48
2023-01-26T16:52:10.133Z,14.88
2023-01-26T16:54:37.604Z,15.60
2023-01-26T16:57:04.725Z,14.18
2023-01-26T16:59:32.028Z,15.43
2023-01-26T17:01:59.045Z,16.30
2023-01-26T17:04:26.159Z,17.85
2023-01-26T17:06:54.236Z,15.30
2023-01-26T17:09:23.218Z,15.60
2023-01-26T17:11:50.212Z,16.02
2023-01-26T17:14:17.359Z,15.57
2023-01-26T17:16:44.668Z,16.58
2023-01-26T17:19:11.777Z,15.77
2023-01-26T17:21:39.440Z,15.18
2023-01-26T17:24:07.266Z,16.20
2023-01-26T17:26:34.352Z,17.13
2023-01-26T17:29:01.314Z,17.80
2023-01-26T17:31:28.801Z,17.88
2023-01-26T17:33:56.028Z,18.45
2023-01-26T17:36:24.052Z,18.08
2023-01-26T17:38:51.085Z,16.30
2023-01-26T17:41:18.568Z,17.75
2023-01-26T17:43:47.800Z,17.67
2023-01-26T17:46:20.116Z,17.65
2023-01-26T17:48:48.402Z,16.05
2023-01-26T17:51:20.658Z,16.83
2023-01-26T17:53:49.844Z,15.30
2023-01-26T17:56:19.367Z,15.45
2023-01-26T17:58:55.743Z,15.63
2023-01-26T18:01:25.045Z,13.68
2023-01-26T18:03:53.735Z,15.63
2023-01-26T18:06:21.547Z,14.23
2023-01-26T18:08:49.193Z,14.68
2023-01-26T18:11:16.991Z,13.52
2023-01-26T18:13:44.621Z,15.05
2023-01-26T18:16:16.623Z,14.38
2023-01-26T18:18:43.884Z,15.43
2023-01-26T18:21:22.811Z,16.17
2023-01-26T18:23:51.856Z,16.30
2023-01-26T18:26:21.299Z,18.02
2023-01-26T18:28:48.974Z,14.38
2023-01-26T18:31:18.960Z,14.85
2023-01-26T18:33:46.978Z,14.57
2023-01-26T18:36:16.400Z,16.48
2023-01-26T18:38:52.242Z,15.95
2023-01-26T18:41:21.039Z,14.55
2023-01-26T18:43:51.437Z,14.85
2023-01-26T18:46:19.231Z,14.30
2023-01-26T18:48:46.434Z,16.63
2023-01-26T18:51:15.742Z,17.08
2023-01-26T18:53:42.751Z,14.60
2023-01-26T18:56:12.079Z,16.75
2023-01-26T18:58:41.502Z,15.75
2023-01-26T19:01:13.562Z,15.93
2023-01-26T19:03:47.432Z,16.83
2023-01-26T19:06:19.895Z,16.88
2023-01-26T19:09:02.410Z,16.90
2023-01-26T19:11:34.753Z,18.25
2023-01-26T19:14:03.090Z,16.70
2023-01-26T19:16:34.590Z,18.20
2023-01-26T19:19:01.869Z,16.23
2023-01-26T19:21:29.160Z,15.65
2023-01-26T19:23:59.099Z,16.88
2023-01-26T19:26:29.776Z,17.77
2023-01-26T19:28:57.024Z,13.63
2023-01-26T19:31:26.520Z,14.98
2023-01-26T19:33:56.157Z,16.05
2023-01-26T19:36:24.570Z,16.52
2023-01-26T19:38:51.748Z,17.70
2023-01-26T19:41:19.996Z,19.52
2023-01-26T19:43:47.219Z,17.75
2023-01-26T19:46:15.763Z,20.85
2023-01-26T19:48:43.182Z,17.83
2023-01-26T19:51:13.986Z,18.20
2023-01-26T19:53:43.836Z,18.48
2023-01-26T19:56:17.534Z,18.48
2023-01-26T19:58:56.435Z,17.92
2023-01-26T20:01:25.384Z,20.50
2023-01-26T20:03:54.802Z,17.95
2023-01-26T20:06:25.744Z,18.23
2023-01-26T20:08:54.479Z,16.48
2023-01-26T20:11:29.543Z,18.33
2023-01-26T20:13:58.483Z,18.60
2023-01-26T20:16:29.435Z,18.02
2023-01-26T20:19:01.131Z,18.45
2023-01-26T20:21:29.420Z,19.33
2023-01-26T20:23:57.045Z,18.50
2023-01-26T20:26:38.019Z,18.77
2023-01-26T20:32:23.921Z,19.00
2023-01-26T20:37:18.106Z,19.42
2023-01-26T20:39:47.658Z,19.35
2023-01-26T20:42:16.681Z,21.67
2023-01-26T20:44:43.866Z,18.90
2023-01-26T20:47:11.165Z,19.23
2023-01-26T20:49:42.079Z,15.68
2023-01-26T20:52:16.701Z,16.80
2023-01-26T20:54:43.833Z,14.50
2023-01-26T20:57:10.901Z,19.35
2023-01-26T20:59:41.243Z,15.30
2023-01-26T21:02:14.469Z,15.25
2023-01-26T21:04:42.566Z,16.42
2023-01-26T21:07:10.250Z,16.80
2023-01-26T21:09:37.624Z,16.77
2023-01-26T21:12:05.186Z,18.05
2023-01-26T21:14:32.897Z,15.57
2023-01-26T21:16:59.931Z,15.13
2023-01-26T21:19:27.021Z,17.23
2023-01-26T21:21:53.958Z,16.35
2023-01-26T21:24:21.083Z,16.77
2023-01-26T21:27:01.577Z,18.45
2023-01-26T21:29:28.667Z,18.23
2023-01-26T21:31:55.907Z,19.30
2023-01-26T21:34:23.001Z,20.98
2023-01-26T21:36:50.020Z,23.20
2023-01-26T21:39:17.403Z,24.08
2023-01-26T21:41:56.433Z,21.75
2023-01-26T21:44:29.228Z,23.33
2023-01-26T21:47:03.885Z,27.48
2023-01-26T21:49:31.146Z,29.65
2023-01-26T21:52:17.085Z,28.65
2023-01-26T21:54:44.308Z,28.40
2023-01-26T21:57:30.237Z,32.65
2023-01-26T21:59:57.338Z,29.85
2023-01-26T22:02:24.625Z,35.42
2023-01-26T22:04:52.821Z,29.02
2023-01-26T22:07:19.919Z,35.60
2023-01-26T22:09:46.999Z,33.35
2023-01-26T22:12:14.072Z,34.65
2023-01-26T22:14:41.426Z,32.35
2023-01-26T22:17:08.479Z,30.35
2023-01-26T22:19:35.750Z,36.22
2023-01-26T22:22:03.609Z,33.30
2023-01-26T22:24:30.664Z,35.33
2023-01-26T22:26:57.927Z,35.17
2023-01-26T22:29:25.412Z,38.33
2023-01-26T22:31:52.524Z,35.97
2023-01-26T22:34:19.564Z,35.53
2023-01-26T22:36:46.797Z,37.70
2023-01-26T22:39:13.934Z,36.08
2023-01-26T22:41:41.967Z,38.13
2023-01-26T22:44:09.438Z,37.17
2023-01-26T22:46:36.950Z,39.67
2023-01-26T22:49:07.348Z,38.28
2023-01-26T22:51:37.348Z,38.97
2023-01-26T22:54:05.261Z,41.10
2023-01-26T22:56:32.521Z,39.95
2023-01-26T22:59:00.739Z,41.45
2023-01-26T23:01:33.053Z,41.28
2023-01-26T23:04:01.202Z,36.13
2023-01-26T23:06:28.450Z,33.67
2023-01-26T23:08:55.897Z,39.17
2023-01-26T23:11:25.569Z,35.85
2023-01-26T23:13:54.177Z,35.47
2023-01-26T23:16:23.650Z,32.97
2023-01-26T23:18:52.135Z,36.63
2023-01-26T23:21:19.431Z,33.53
2023-01-26T23:23:46.514Z,32.78
2023-01-26T23:26:13.543Z,32.78
2023-01-26T23:28:42.718Z,31.23
2023-01-26T23:31:11.147Z,31.02
2023-01-26T23:33:38.954Z,31.58
2023-01-26T23:36:07.409Z,31.15
2023-01-26T23:38:34.530Z,31.58
2023-01-26T23:41:01.838Z,29.27
2023-01-26T23:43:28.902Z,27.65
2023-01-26T23:45:56.929Z,26.40
2023-01-26T23:48:25.117Z,28.92
2023-01-26T23:50:56.749Z,28.13
2023-01-26T23:53:24.261Z,30.45
2023-01-26T23:55:51.464Z,28.35
2023-01-26T23:58:19.113Z,32.03
